createdAt,value
2023-05-25T00:01:50.185Z,8.62
2023-05-25T00:04:19.625Z,8.45
2023-05-25T00:06:48.547Z,8.44
2023-05-25T00:09:16.356Z,8.52
2023-05-25T00:11:43.815Z,8.79
2023-05-25T00:14:11.368Z,8.85
2023-05-25T00:16:40.508Z,8.93
2023-05-25T00:19:10.578Z,8.84
2023-05-25T00:21:39.073Z,8.72
2023-05-25T00:24:08.981Z,8.61
2023-05-25T00:26:36.635Z,8.54
2023-05-25T00:29:04.393Z,8.31
2023-05-25T00:31:32.961Z,8.48
2023-05-25T00:34:00.739Z,8.37
2023-05-25T00:36:28.267Z,8.53
2023-05-25T00:38:55.735Z,8.60
2023-05-25T00:41:26.044Z,8.65
2023-05-25T00:43:53.489Z,8.68
2023-05-25T00:46:21.136Z,8.65
2023-05-25T00:48:48.672Z,8.58
2023-05-25T00:51:16.896Z,8.43
2023-05-25T00:53:44.485Z,8.28
2023-05-25T00:56:16.196Z,8.02
2023-05-25T00:58:47.526Z,8.06
2023-05-25T01:01:16.338Z,8.19
2023-05-25T01:03:47.227Z,8.33
2023-05-25T01:06:16.898Z,8.38
2023-05-25T01:08:50.971Z,8.31
2023-05-25T01:11:23.100Z,8.34
2023-05-25T01:13:54.225Z,8.31
2023-05-25T01:16:22.000Z,8.08
2023-05-25T01:18:52.762Z,7.86
2023-05-25T01:21:27.030Z,7.98
2023-05-25T01:24:03.655Z,8.02
2023-05-25T01:26:35.423Z,8.05
2023-05-25T01:29:03.582Z,7.93
2023-05-25T01:31:31.296Z,7.91
2023-05-25T01:33:59.037Z,8.00
2023-05-25T01:36:27.816Z,8.03
2023-05-25T01:38:55.549Z,8.03
2023-05-25T01:41:22.988Z,7.86
2023-05-25T01:43:50.894Z,7.73
2023-05-25T01:46:23.517Z,7.85
2023-05-25T01:48:58.613Z,7.81
2023-05-25T01:51:37.652Z,7.13
2023-05-25T01:54:11.135Z,7.19
2023-05-25T01:56:40.209Z,7.48
2023-05-25T01:59:09.864Z,7.67
2023-05-25T02:01:38.411Z,7.74
2023-05-25T02:04:06.360Z,7.87
2023-05-25T02:06:36.685Z,7.65
2023-05-25T02:09:04.471Z,7.48
2023-05-25T02:11:31.965Z,7.62
2023-05-25T02:13:59.420Z,7.57
2023-05-25T02:16:27.870Z,7.66
2023-05-25T02:18:58.024Z,7.49
2023-05-25T02:21:25.478Z,7.66
2023-05-25T02:23:54.914Z,6.92
2023-05-25T02:26:22.538Z,7.14
2023-05-25T02:28:49.995Z,7.40
2023-05-25T02:31:17.514Z,7.30
2023-05-25T02:33:44.926Z,7.36
2023-05-25T02:36:12.330Z,7.14
2023-05-25T02:38:39.843Z,6.79
2023-05-25T02:41:08.571Z,7.15
2023-05-25T02:43:37.476Z,7.24
2023-05-25T02:46:04.918Z,7.07
2023-05-25T02:48:32.365Z,7.16
2023-05-25T02:50:59.779Z,7.27
2023-05-25T02:53:27.285Z,7.24
2023-05-25T02:55:54.805Z,7.34
2023-05-25T02:58:23.572Z,7.33
2023-05-25T03:00:51.576Z,7.28
2023-05-25T03:03:19.174Z,7.01
2023-05-25T03:05:47.308Z,7.27
2023-05-25T03:08:14.755Z,7.42
2023-05-25T03:10:42.206Z,7.42
2023-05-25T03:13:09.629Z,7.49
2023-05-25T03:15:40.147Z,7.46
2023-05-25T03:18:07.615Z,7.22
2023-05-25T03:20:35.243Z,7.20
2023-05-25T03:23:02.770Z,7.01
2023-05-25T03:25:30.720Z,7.13
2023-05-25T03:27:58.307Z,7.36
2023-05-25T03:30:26.047Z,7.34
2023-05-25T03:32:54.906Z,7.50
2023-05-25T03:35:22.444Z,7.68
2023-05-25T03:37:49.860Z,7.67
2023-05-25T03:40:17.327Z,7.57
2023-05-25T03:42:44.791Z,7.62
2023-05-25T03:45:12.488Z,7.70
2023-05-25T03:47:39.931Z,7.62
2023-05-25T03:50:09.701Z,7.53
2023-05-25T03:52:37.155Z,7.89
2023-05-25T03:55:05.406Z,7.91
2023-05-25T03:57:32.851Z,7.97
2023-05-25T04:00:00.427Z,8.12
2023-05-25T04:02:27.944Z,8.11
2023-05-25T04:04:57.099Z,8.12
2023-05-25T04:07:27.387Z,8.01
2023-05-25T04:09:54.890Z,8.19
2023-05-25T04:12:22.905Z,8.02
2023-05-25T04:14:51.104Z,8.24
2023-05-25T04:17:19.068Z,8.61
2023-05-25T04:19:46.523Z,9.21
2023-05-25T04:22:13.974Z,11.11
2023-05-25T04:24:42.743Z,10.46
2023-05-25T04:27:10.296Z,10.12
2023-05-25T04:29:38.225Z,10.52
2023-05-25T04:32:06.526Z,11.26
2023-05-25T04:34:33.971Z,11.91
2023-05-25T04:37:05.117Z,12.45
2023-05-25T04:39:33.400Z,11.41
2023-05-25T04:42:04.348Z,11.56
2023-05-25T04:44:32.140Z,10.58
2023-05-25T04:47:01.308Z,10.02
2023-05-25T04:49:29.180Z,10.25
2023-05-25T04:51:56.627Z,10.48
2023-05-25T04:54:24.310Z,10.30
2023-05-25T04:56:51.916Z,11.45
2023-05-25T04:59:20.908Z,11.77
2023-05-25T05:01:48.489Z,10.82
2023-05-25T05:04:17.889Z,10.98
2023-05-25T05:06:45.315Z,11.28
2023-05-25T05:09:13.191Z,11.87
2023-05-25T05:11:40.736Z,11.23
2023-05-25T05:14:08.216Z,11.05
2023-05-25T05:16:37.512Z,10.59
2023-05-25T05:19:05.059Z,10.80
2023-05-25T05:21:32.519Z,10.54
2023-05-25T05:23:59.955Z,10.86
2023-05-25T05:26:27.743Z,11.00
2023-05-25T05:28:55.207Z,11.47
2023-05-25T05:31:24.218Z,11.71
2023-05-25T05:33:53.090Z,11.83
2023-05-25T05:36:20.595Z,11.75
2023-05-25T05:38:48.064Z,12.53
2023-05-25T05:41:15.560Z,12.90
2023-05-25T05:43:44.108Z,12.63
2023-05-25T05:46:11.675Z,12.93
2023-05-25T05:48:39.557Z,12.56
2023-05-25T05:51:08.413Z,13.30
2023-05-25T05:53:36.423Z,12.82
2023-05-25T05:56:04.181Z,13.43
2023-05-25T05:58:32.395Z,13.42
2023-05-25T06:01:00.145Z,14.18
2023-05-25T06:03:28.794Z,13.93
2023-05-25T06:05:56.378Z,14.08
2023-05-25T06:08:25.194Z,14.54
2023-05-25T06:10:52.698Z,13.81
2023-05-25T06:13:20.787Z,12.92
2023-05-25T06:15:48.300Z,12.99
2023-05-25T06:18:16.148Z,13.80
2023-05-25T06:20:43.793Z,13.55
2023-05-25T06:23:13.985Z,13.74
2023-05-25T06:25:42.867Z,13.66
2023-05-25T06:28:10.554Z,14.47
2023-05-25T06:30:38.010Z,13.37
2023-05-25T06:33:05.629Z,13.69
2023-05-25T06:35:33.150Z,13.89
2023-05-25T06:38:00.749Z,14.83
2023-05-25T06:40:28.249Z,14.78
2023-05-25T06:42:57.012Z,15.35
2023-05-25T06:45:24.520Z,15.01
2023-05-25T06:47:51.978Z,14.43
2023-05-25T06:50:20.138Z,14.05
2023-05-25T06:52:47.904Z,14.54
2023-05-25T06:55:15.597Z,15.57
2023-05-25T06:57:43.693Z,15.14
2023-05-25T07:00:14.254Z,15.91
2023-05-25T07:02:41.752Z,16.13
2023-05-25T07:05:09.731Z,16.05
2023-05-25T07:07:37.214Z,15.15
2023-05-25T07:10:06.077Z,15.28
2023-05-25T07:12:33.584Z,16.38
2023-05-25T07:15:01.134Z,14.91
2023-05-25T07:17:31.457Z,14.62
2023-05-25T07:19:59.146Z,15.30
2023-05-25T07:22:26.693Z,15.36
2023-05-25T07:24:54.116Z,16.11
2023-05-25T07:27:21.560Z,15.02
2023-05-25T07:29:49.021Z,15.79
2023-05-25T07:32:16.600Z,15.69
2023-05-25T07:34:45.468Z,16.09
2023-05-25T07:37:12.911Z,15.21
2023-05-25T07:39:41.051Z,15.75
2023-05-25T07:42:08.525Z,15.62
2023-05-25T07:44:35.977Z,16.35
2023-05-25T07:47:03.489Z,16.68
2023-05-25T07:49:31.058Z,16.29
2023-05-25T07:51:59.803Z,16.78
2023-05-25T07:54:27.276Z,16.87
2023-05-25T07:56:54.758Z,16.43
2023-05-25T07:59:22.202Z,16.82
2023-05-25T08:01:49.724Z,16.67
2023-05-25T08:04:17.303Z,17.39
2023-05-25T08:06:45.271Z,16.67
2023-05-25T08:09:14.214Z,17.80
2023-05-25T08:11:41.674Z,17.91
2023-05-25T08:14:09.168Z,18.57
2023-05-25T08:16:36.770Z,17.06
2023-05-25T08:19:04.291Z,18.07
2023-05-25T08:21:34.938Z,18.92
2023-05-25T08:24:04.122Z,17.18
2023-05-25T08:26:52.279Z,17.48
2023-05-25T08:29:21.180Z,16.76
2023-05-25T08:31:49.818Z,17.66
2023-05-25T08:34:17.583Z,18.36
2023-05-25T08:36:45.719Z,18.17
2023-05-25T08:39:13.334Z,18.76
2023-05-25T08:41:45.730Z,18.67
2023-05-25T08:44:14.586Z,19.14
2023-05-25T08:46:42.999Z,19.07
2023-05-25T08:49:13.728Z,18.26
2023-05-25T08:51:44.271Z,18.50
2023-05-25T08:54:14.384Z,18.20
2023-05-25T08:56:52.086Z,18.38
2023-05-25T08:59:31.706Z,18.46
2023-05-25T09:02:07.676Z,17.84
2023-05-25T09:04:35.835Z,18.10
2023-05-25T09:07:10.304Z,18.64
2023-05-25T09:09:39.644Z,18.36
2023-05-25T09:12:10.015Z,17.94
2023-05-25T09:14:39.719Z,18.58
2023-05-25T09:17:07.889Z,18.65
2023-05-25T09:19:37.202Z,18.84
2023-05-25T09:22:14.824Z,19.38
2023-05-25T09:24:44.439Z,18.78
2023-05-25T09:27:18.295Z,19.38
2023-05-25T09:29:47.714Z,19.36
2023-05-25T09:32:16.771Z,19.15
2023-05-25T09:34:45.006Z,20.26
2023-05-25T09:37:14.288Z,20.07
2023-05-25T09:39:43.330Z,19.92
2023-05-25T09:42:11.292Z,21.10
2023-05-25T09:44:40.546Z,20.10
2023-05-25T09:47:08.100Z,18.15
2023-05-25T09:49:36.499Z,19.04
2023-05-25T09:52:03.999Z,19.51
2023-05-25T09:54:31.957Z,20.17
2023-05-25T09:57:01.492Z,18.73
2023-05-25T09:59:29.029Z,20.05
2023-05-25T10:01:59.321Z,20.54
2023-05-25T10:04:26.925Z,19.18
2023-05-25T10:06:56.688Z,19.22
2023-05-25T10:09:26.468Z,19.61
2023-05-25T10:11:55.922Z,19.88
2023-05-25T10:14:29.506Z,20.64
2023-05-25T10:17:00.569Z,18.76
2023-05-25T10:19:35.149Z,18.66
2023-05-25T10:22:08.066Z,18.74
2023-05-25T10:24:39.660Z,18.58
2023-05-25T10:27:25.661Z,19.95
2023-05-25T10:29:57.210Z,20.05
2023-05-25T10:32:27.009Z,19.79
2023-05-25T10:34:54.868Z,20.20
2023-05-25T10:37:24.393Z,21.70
2023-05-25T10:39:53.121Z,20.84
2023-05-25T10:42:20.634Z,21.78
2023-05-25T10:44:48.558Z,21.60
2023-05-25T10:47:17.580Z,19.81
2023-05-25T10:49:56.744Z,18.68
2023-05-25T10:52:28.607Z,19.33
2023-05-25T10:54:57.775Z,20.28
2023-05-25T10:57:26.429Z,20.67
2023-05-25T11:00:00.029Z,20.36
2023-05-25T11:02:30.333Z,20.41
2023-05-25T11:05:33.400Z,21.39
2023-05-25T11:08:02.193Z,20.21
2023-05-25T11:10:59.942Z,19.91
2023-05-25T11:13:38.077Z,19.40
2023-05-25T11:16:17.791Z,21.12
2023-05-25T11:18:47.295Z,21.46
2023-05-25T11:21:18.740Z,20.63
2023-05-25T11:23:59.659Z,19.79
2023-05-25T11:26:29.215Z,19.75
2023-05-25T11:28:59.653Z,20.97
2023-05-25T11:31:35.833Z,21.46
2023-05-25T11:34:06.788Z,21.25
2023-05-25T11:36:37.173Z,20.19
2023-05-25T11:39:17.062Z,19.95
2023-05-25T11:41:51.355Z,19.55
2023-05-25T11:44:27.312Z,20.42
2023-05-25T11:46:57.102Z,20.61
2023-05-25T11:49:25.488Z,20.25
2023-05-25T11:51:54.736Z,20.79
2023-05-25T11:54:23.895Z,19.65
2023-05-25T11:56:51.524Z,20.90
2023-05-25T11:59:19.124Z,19.85
2023-05-25T12:01:56.583Z,20.75
2023-05-25T12:04:24.531Z,21.70
2023-05-25T12:06:52.646Z,21.98
2023-05-25T12:09:23.000Z,20.93
2023-05-25T12:11:51.141Z,20.45
2023-05-25T12:14:18.900Z,20.27
2023-05-25T12:16:46.732Z,19.92
2023-05-25T12:19:14.793Z,21.46
2023-05-25T12:21:42.854Z,20.60
2023-05-25T12:24:12.685Z,21.75
2023-05-25T12:26:49.468Z,21.58
2023-05-25T12:29:17.040Z,21.52
2023-05-25T12:31:44.717Z,20.70
2023-05-25T12:34:13.652Z,20.64
2023-05-25T12:36:43.855Z,20.85
2023-05-25T12:39:16.862Z,20.85
2023-05-25T12:41:45.828Z,21.72
2023-05-25T12:44:36.275Z,22.34
2023-05-25T12:47:14.405Z,22.47
2023-05-25T12:49:43.729Z,20.91
2023-05-25T12:52:12.085Z,21.62
2023-05-25T12:54:44.970Z,21.76
2023-05-25T12:57:14.715Z,20.61
2023-05-25T12:59:44.995Z,21.22
2023-05-25T13:02:13.877Z,22.00
2023-05-25T13:04:42.715Z,21.80
2023-05-25T13:07:10.457Z,21.69
2023-05-25T13:09:38.429Z,21.78
2023-05-25T13:12:06.988Z,21.96
2023-05-25T13:14:34.444Z,21.85
2023-05-25T13:17:03.230Z,20.75
2023-05-25T13:19:30.854Z,20.68
2023-05-25T13:21:58.299Z,20.69
2023-05-25T13:24:25.757Z,20.61
2023-05-25T13:26:53.250Z,21.69
2023-05-25T13:29:20.734Z,21.61
2023-05-25T13:31:48.356Z,21.54
2023-05-25T13:34:17.625Z,21.93
2023-05-25T13:36:45.148Z,21.27
2023-05-25T13:39:13.782Z,21.29
2023-05-25T13:41:42.569Z,21.46
2023-05-25T13:44:11.089Z,21.40
2023-05-25T13:46:38.718Z,21.69
2023-05-25T13:49:06.408Z,22.04
2023-05-25T13:51:35.764Z,21.65
2023-05-25T13:54:04.561Z,21.54
2023-05-25T13:56:32.314Z,21.41
2023-05-25T13:58:59.824Z,21.64
2023-05-25T14:01:28.517Z,21.99
2023-05-25T14:03:56.698Z,21.47
2023-05-25T14:06:24.960Z,21.50
2023-05-25T14:08:53.904Z,21.82
2023-05-25T14:11:28.187Z,22.03
2023-05-25T14:13:56.711Z,21.68
2023-05-25T14:16:24.164Z,21.36
2023-05-25T14:18:51.728Z,21.29
2023-05-25T14:21:19.227Z,21.71
2023-05-25T14:23:46.643Z,21.78
2023-05-25T14:26:15.449Z,22.06
2023-05-25T14:28:42.883Z,21.21
2023-05-25T14:31:12.273Z,21.22
2023-05-25T14:33:40.785Z,21.89
2023-05-25T14:36:10.242Z,21.23
2023-05-25T14:38:37.688Z,21.04
2023-05-25T14:41:05.396Z,21.75
2023-05-25T14:43:34.973Z,21.62
2023-05-25T14:46:02.410Z,21.66
2023-05-25T14:48:29.928Z,21.68
2023-05-25T14:50:58.721Z,21.53
2023-05-25T14:53:26.435Z,21.00
2023-05-25T14:55:53.854Z,21.78
2023-05-25T14:58:21.456Z,21.71
2023-05-25T15:00:50.562Z,21.48
2023-05-25T15:03:18.962Z,21.48
2023-05-25T15:05:46.851Z,21.58
2023-05-25T15:08:14.358Z,21.26
2023-05-25T15:10:41.851Z,21.48
2023-05-25T15:13:10.001Z,21.50
2023-05-25T15:15:38.775Z,21.12
2023-05-25T15:18:07.817Z,21.65
2023-05-25T15:20:35.430Z,21.52
2023-05-25T15:23:02.915Z,21.03
2023-05-25T15:25:35.492Z,21.06
2023-05-25T15:28:03.401Z,20.73
2023-05-25T15:30:30.849Z,21.36
2023-05-25T15:32:58.736Z,20.89
2023-05-25T15:35:32.164Z,21.26
2023-05-25T15:37:59.655Z,21.19
2023-05-25T15:40:27.117Z,20.95
2023-05-25T15:42:54.626Z,20.72
2023-05-25T15:45:22.035Z,20.64
2023-05-25T15:47:50.502Z,20.77
2023-05-25T15:50:18.328Z,20.87
2023-05-25T15:52:47.168Z,20.93
2023-05-25T15:55:14.676Z,21.09
2023-05-25T15:57:42.083Z,21.16
2023-05-25T16:00:11.638Z,20.91
2023-05-25T16:02:39.261Z,21.05
2023-05-25T16:05:07.233Z,21.15
2023-05-25T16:07:34.686Z,21.17
2023-05-25T16:10:03.576Z,20.85
2023-05-25T16:12:31.072Z,21.10
2023-05-25T16:14:58.502Z,21.05
2023-05-25T16:17:26.396Z,21.07
2023-05-25T16:19:53.899Z,21.09
2023-05-25T16:22:21.387Z,20.92
2023-05-25T16:24:48.844Z,20.90
2023-05-25T16:27:17.718Z,20.81
2023-05-25T16:29:45.549Z,20.99
2023-05-25T16:32:13.032Z,20.84
2023-05-25T16:34:40.508Z,20.84
2023-05-25T16:37:07.923Z,20.77
2023-05-25T16:39:35.455Z,20.80
2023-05-25T16:42:03.477Z,20.62
2023-05-25T16:44:32.194Z,20.61
2023-05-25T16:46:59.625Z,20.74
2023-05-25T16:49:27.118Z,20.73
2023-05-25T16:51:54.571Z,20.67
2023-05-25T16:54:22.267Z,20.66
2023-05-25T16:56:49.708Z,20.54
2023-05-25T16:59:17.166Z,20.35
2023-05-25T17:01:46.031Z,20.26
2023-05-25T17:04:13.595Z,20.41
2023-05-25T17:06:41.023Z,20.63
2023-05-25T17:09:08.644Z,20.38
2023-05-25T17:11:36.096Z,20.39
2023-05-25T17:14:03.568Z,20.15
2023-05-25T17:16:31.166Z,20.33
2023-05-25T17:18:59.919Z,20.11
2023-05-25T17:21:30.988Z,20.31
2023-05-25T17:23:58.397Z,20.06
2023-05-25T17:26:25.807Z,20.12
2023-05-25T17:28:53.207Z,19.98
2023-05-25T17:31:20.675Z,20.02
2023-05-25T17:33:48.137Z,20.15
2023-05-25T17:36:16.994Z,20.21
2023-05-25T17:38:44.670Z,20.19
2023-05-25T17:41:12.114Z,20.16
2023-05-25T17:43:39.551Z,20.09
2023-05-25T17:46:07.449Z,19.99
2023-05-25T17:48:35.307Z,19.64
2023-05-25T17:51:03.127Z,19.67
2023-05-25T17:53:31.890Z,19.69
2023-05-25T17:55:59.320Z,19.56
2023-05-25T17:58:26.821Z,19.63
2023-05-25T18:00:54.377Z,19.64
2023-05-25T18:03:22.091Z,19.59
2023-05-25T18:05:49.534Z,19.37
2023-05-25T18:08:16.975Z,19.53
2023-05-25T18:10:46.069Z,19.33
2023-05-25T18:13:13.557Z,19.36
2023-05-25T18:15:41.024Z,19.21
2023-05-25T18:18:12.037Z,19.15
2023-05-25T18:20:39.696Z,19.21
2023-05-25T18:23:08.265Z,19.21
2023-05-25T18:25:35.935Z,19.13
2023-05-25T18:28:04.750Z,19.13
2023-05-25T18:30:32.192Z,19.13
2023-05-25T18:32:59.923Z,19.07
2023-05-25T18:35:31.125Z,19.00
2023-05-25T18:37:58.567Z,18.84
2023-05-25T18:40:25.994Z,18.68
2023-05-25T18:42:53.450Z,18.74
2023-05-25T18:45:22.433Z,18.72
2023-05-25T18:47:50.154Z,18.62
2023-05-25T18:50:17.633Z,18.62
2023-05-25T18:52:46.789Z,18.59
2023-05-25T18:55:14.215Z,18.26
2023-05-25T18:57:41.646Z,18.29
2023-05-25T19:00:10.564Z,18.25
2023-05-25T19:02:39.368Z,18.04
2023-05-25T19:05:07.967Z,18.10
2023-05-25T19:07:50.767Z,18.04
2023-05-25T19:10:25.711Z,18.08
2023-05-25T19:12:53.167Z,18.05
2023-05-25T19:15:23.975Z,17.99
2023-05-25T19:17:52.827Z,17.95
2023-05-25T19:20:20.506Z,17.77
2023-05-25T19:22:48.010Z,17.70
2023-05-25T19:25:15.536Z,17.70
2023-05-25T19:27:42.958Z,17.66
2023-05-25T19:30:11.179Z,17.56
2023-05-25T19:32:38.854Z,17.49
2023-05-25T19:35:08.226Z,17.44
2023-05-25T19:37:37.589Z,17.32
2023-05-25T19:40:06.320Z,17.39
2023-05-25T19:42:34.124Z,17.13
2023-05-25T19:45:01.656Z,17.25
2023-05-25T19:47:29.473Z,17.13
2023-05-25T19:49:56.939Z,17.23
2023-05-25T19:52:25.789Z,17.12
2023-05-25T19:54:53.251Z,17.13
2023-05-25T19:57:20.978Z,17.05
2023-05-25T19:59:49.994Z,16.83
2023-05-25T20:02:17.635Z,16.93
2023-05-25T20:04:45.086Z,16.80
2023-05-25T20:07:12.538Z,16.68
2023-05-25T20:09:42.884Z,16.58
2023-05-25T20:12:10.985Z,16.59
2023-05-25T20:14:38.547Z,16.58
2023-05-25T20:17:06.271Z,16.42
2023-05-25T20:19:33.775Z,16.38
2023-05-25T20:22:02.409Z,16.16
2023-05-25T20:24:29.852Z,16.09
2023-05-25T20:26:59.760Z,16.11
2023-05-25T20:29:27.455Z,16.00
2023-05-25T20:31:54.884Z,15.95
2023-05-25T20:34:22.403Z,15.77
2023-05-25T20:36:50.156Z,15.81
2023-05-25T20:39:17.569Z,15.82
2023-05-25T20:41:45.045Z,15.75
2023-05-25T20:44:14.097Z,15.72
2023-05-25T20:46:41.788Z,15.56
2023-05-25T20:49:09.597Z,15.57
2023-05-25T20:51:37.009Z,15.50
2023-05-25T20:54:04.637Z,15.49
2023-05-25T20:56:32.105Z,15.38
2023-05-25T20:58:59.535Z,15.28
2023-05-25T21:01:29.281Z,15.15
2023-05-25T21:03:56.932Z,15.15
2023-05-25T21:06:24.463Z,15.07
2023-05-25T21:08:52.918Z,15.06
2023-05-25T21:11:20.473Z,15.10
2023-05-25T21:13:48.713Z,15.00
2023-05-25T21:16:16.321Z,15.08
2023-05-25T21:18:45.100Z,15.11
2023-05-25T21:21:12.616Z,15.06
2023-05-25T21:23:40.089Z,15.09
2023-05-25T21:26:07.955Z,15.02
2023-05-25T21:28:35.359Z,14.73
2023-05-25T21:31:02.820Z,14.86
2023-05-25T21:33:35.452Z,14.88
2023-05-25T21:36:04.807Z,14.73
2023-05-25T21:38:32.225Z,14.70
2023-05-25T21:40:59.891Z,14.72
2023-05-25T21:43:27.937Z,14.63
2023-05-25T21:45:55.421Z,14.63
2023-05-25T21:48:22.848Z,14.55
2023-05-25T21:50:51.141Z,14.56
2023-05-25T21:53:20.528Z,14.43
2023-05-25T21:55:48.161Z,14.47
2023-05-25T21:58:16.827Z,14.27
2023-05-25T22:00:44.308Z,14.25
2023-05-25T22:03:11.960Z,14.22
2023-05-25T22:05:39.556Z,14.22
2023-05-25T22:08:07.517Z,14.21
2023-05-25T22:10:36.510Z,14.16
2023-05-25T22:13:04.998Z,14.17
2023-05-25T22:15:32.513Z,14.18
2023-05-25T22:18:00.301Z,14.10
2023-05-25T22:20:27.879Z,14.07
2023-05-25T22:22:55.440Z,14.05
2023-05-25T22:25:22.971Z,13.97
2023-05-25T22:27:51.735Z,13.92
2023-05-25T22:30:19.312Z,13.76
2023-05-25T22:32:46.783Z,13.81
2023-05-25T22:35:14.221Z,13.82
2023-05-25T22:37:41.817Z,13.75
2023-05-25T22:40:10.327Z,13.72
2023-05-25T22:42:37.767Z,13.67
2023-05-25T22:45:07.946Z,13.69
2023-05-25T22:47:35.726Z,13.69
2023-05-25T22:50:03.280Z,13.60
2023-05-25T22:52:30.690Z,13.58
2023-05-25T22:54:58.110Z,13.57
2023-05-25T22:57:25.538Z,13.46
2023-05-25T22:59:52.953Z,13.44
2023-05-25T23:02:21.806Z,13.26
2023-05-25T23:04:49.282Z,13.31
2023-05-25T23:07:16.703Z,13.30
2023-05-25T23:09:44.152Z,13.27
2023-05-25T23:12:11.630Z,13.22
2023-05-25T23:14:39.093Z,13.19
2023-05-25T23:17:06.546Z,13.11
2023-05-25T23:19:35.633Z,13.07
2023-05-25T23:22:03.042Z,13.04
2023-05-25T23:24:30.601Z,13.00
2023-05-25T23:26:58.082Z,12.98
2023-05-25T23:29:25.521Z,12.79
2023-05-25T23:31:52.986Z,12.86
2023-05-25T23:34:20.664Z,12.86
2023-05-25T23:36:49.435Z,12.79
2023-05-25T23:39:16.869Z,12.79
2023-05-25T23:41:44.261Z,12.75
2023-05-25T23:44:11.667Z,12.68
2023-05-25T23:46:39.135Z,12.68
2023-05-25T23:49:06.560Z,12.68
2023-05-25T23:51:34.017Z,12.59
2023-05-25T23:54:02.787Z,12.49
2023-05-25T23:56:32.235Z,12.54
2023-05-25T23:58:59.734Z,12.53
